CheckWX is a tool to help pilots better visualize weather data.  It is not intended as a substitute for an official pre-flight weather briefing.

06:36:35 UTC

KAFO METAR
Afton Municipal Airport
Afton, Wyoming, USA
Current

22 mins ago

KAFO 140615Z AUTO 00000KT 10SM CLR M02/M04 A3022 RMK AO2
Observed
Nov-14 @ 06:15 UTC
Visibility
10 SM
Flight Rules
VFR
Cloud Levels
  • Clear skies
Temperature
-2°C / 28°F
Dewpoint
-4°C / 25°F
Humidity
86%
Altimeter
30.22" Hg
Pressure
1023.42 hPa
Previous

42 mins ago

KAFO 140555Z AUTO 00000KT 10SM CLR M03/M04 A3021 RMK AO2
Observed
Nov-14 @ 05:55 UTC
Visibility
10 SM
Flight Rules
VFR
Cloud Levels
  • Clear skies
Temperature
-3°C / 27°F
Dewpoint
-4°C / 25°F
Humidity
93%
Altimeter
30.21" Hg
Pressure
1023.02 hPa
Previous

1 hour ago

KAFO 140535Z AUTO 00000KT 10SM CLR M03/M05 A3021 RMK AO2
Observed
Nov-14 @ 05:35 UTC
Visibility
10 SM
Flight Rules
VFR
Cloud Levels
  • Clear skies
Temperature
-3°C / 27°F
Dewpoint
-5°C / 23°F
Humidity
86%
Altimeter
30.21" Hg
Pressure
1023.02 hPa